Time;durP1;ratioP1;P1;durP2;ratioP2;P2;SDS_P1;SDS_P2;PMS_P1;PMS_P2;Temp;Humidity;BMP_temperature;BMP_pressure;BME280_temperature;BME280_humidity;BME280_pressure;Samples;Min_cycle;Max_cycle;Signal;HPM_P1;HPM_P2
2022/12/12 00:00:08;;;;;;;13.43;6.63;;;;;;;-12.55;100.00;92093.56;2114094;28;20488;-75
2022/12/12 00:01:35;;;;;;;10.87;6.27;;;;;;;-12.55;100.00;92096.16;2115247;27;20377;-75
2022/12/12 00:02:37;;;;;;;10.80;6.13;;;;;;;-12.56;100.00;92089.47;2122972;27;20510;-74
2022/12/12 00:03:38;;;;;;;10.63;6.73;;;;;;;-12.56;100.00;92092.78;2122263;27;20445;-75
2022/12/12 00:04:39;;;;;;;12.53;6.20;;;;;;;-12.57;100.00;92090.53;2122748;27;20495;-75
2022/12/12 00:05:40;;;;;;;9.13;5.93;;;;;;;-12.59;100.00;92090.84;2123148;27;20034;-74
2022/12/12 00:06:41;;;;;;;11.33;6.83;;;;;;;-12.65;100.00;92094.56;2120523;27;20105;-75
2022/12/12 00:07:42;;;;;;;10.83;6.50;;;;;;;-12.69;100.00;92091.84;2114315;28;20432;-74
2022/12/12 00:08:44;;;;;;;8.67;5.80;;;;;;;-12.66;100.00;92093.06;2121925;27;20038;-77
2022/12/12 00:09:45;;;;;;;8.40;5.87;;;;;;;-12.71;100.00;92099.09;2122628;27;20491;-74
2022/12/12 00:10:46;;;;;;;8.97;6.30;;;;;;;-12.79;100.00;92094.69;2113858;28;20429;-76
2022/12/12 00:11:47;;;;;;;11.47;6.47;;;;;;;-12.71;100.00;92099.09;2122318;27;20566;-76
2022/12/12 00:12:48;;;;;;;13.83;6.73;;;;;;;-12.73;100.00;92092.72;2123387;27;20435;-75
2022/12/12 00:13:49;;;;;;;10.87;6.67;;;;;;;-12.72;100.00;92094.25;2122145;27;20061;-74
2022/12/12 00:14:50;;;;;;;12.77;6.20;;;;;;;-12.72;100.00;92100.16;2123316;27;20102;-73
2022/12/12 00:15:51;;;;;;;10.67;6.23;;;;;;;-12.73;100.00;92101.22;2123363;27;20499;-75
2022/12/12 00:16:52;;;;;;;11.03;6.30;;;;;;;-12.75;100.00;92093.03;2126736;27;20043;-75
2022/12/12 00:17:53;;;;;;;12.73;6.87;;;;;;;-12.73;100.00;92097.88;2130814;27;20026;-76
2022/12/12 00:18:54;;;;;;;10.33;6.47;;;;;;;-12.77;100.00;92097.72;2113722;28;20092;-74
2022/12/12 00:19:55;;;;;;;9.07;5.80;;;;;;;-12.72;100.00;92099.41;2122167;27;20464;-75
2022/12/12 00:20:56;;;;;;;11.37;6.00;;;;;;;-12.73;100.00;92096.09;2131797;27;20757;-75
2022/12/12 00:21:57;;;;;;;11.83;7.03;;;;;;;-12.78;100.00;92103.16;2131638;27;20019;-75
2022/12/12 00:22:59;;;;;;;10.40;6.17;;;;;;;-12.84;100.00;92102.53;2122106;27;21256;-75
2022/12/12 00:24:01;;;;;;;11.37;6.57;;;;;;;-12.92;100.00;92094.78;2122562;27;20052;-75
2022/12/12 00:25:03;;;;;;;9.63;6.10;;;;;;;-12.92;100.00;92095.53;2131387;27;20459;-74
2022/12/12 00:26:11;;;;;;;9.43;6.13;;;;;;;-12.83;100.00;92093.00;2121963;27;20421;-75
2022/12/12 00:27:12;;;;;;;11.17;5.93;;;;;;;-12.77;100.00;92092.59;2123790;27;20474;-75
2022/12/12 00:28:14;;;;;;;10.67;6.10;;;;;;;-12.80;100.00;92095.75;2131340;27;20424;-75
2022/12/12 00:29:15;;;;;;;11.33;6.20;;;;;;;-12.86;100.00;92094.38;2131712;27;20439;-75
2022/12/12 00:30:16;;;;;;;13.83;6.13;;;;;;;-12.91;100.00;92091.91;2130734;27;20023;-75
2022/12/12 00:31:17;;;;;;;11.57;6.03;;;;;;;-12.88;100.00;92101.59;2122026;27;20102;-75
2022/12/12 00:32:18;;;;;;;10.47;6.27;;;;;;;-13.04;100.00;92092.75;2122470;27;20565;-75
2022/12/12 00:33:20;;;;;;;10.00;6.77;;;;;;;-12.98;100.00;92094.16;2131196;27;20450;-75
2022/12/12 00:34:21;;;;;;;12.17;6.73;;;;;;;-12.90;100.00;92098.59;2131676;27;20870;-75
2022/12/12 00:35:22;;;;;;;12.53;6.70;;;;;;;-12.87;100.00;92097.22;2131093;27;20444;-75
2022/12/12 00:36:25;;;;;;;13.13;6.63;;;;;;;-12.91;100.00;92097.03;2131337;27;20042;-75
2022/12/12 00:37:26;;;;;;;11.90;6.37;;;;;;;-12.97;100.00;92101.56;2122728;27;20026;-74
2022/12/12 00:38:27;;;;;;;9.77;6.13;;;;;;;-12.93;100.00;92098.41;2126284;27;20497;-75
2022/12/12 00:39:28;;;;;;;11.50;6.07;;;;;;;-12.93;100.00;92094.03;2131709;27;20035;-75
2022/12/12 00:40:28;;;;;;;9.93;6.43;;;;;;;-12.93;100.00;92086.31;2121904;27;20027;-76
2022/12/12 00:41:29;;;;;;;10.77;6.27;;;;;;;-12.95;100.00;92096.91;2122303;27;20031;-75
2022/12/12 00:42:31;;;;;;;9.30;5.70;;;;;;;-12.90;100.00;92101.16;2122025;27;20027;-76
2022/12/12 00:43:32;;;;;;;13.50;6.57;;;;;;;-13.02;100.00;92099.13;2121838;27;20495;-75
2022/12/12 00:44:33;;;;;;;10.60;5.93;;;;;;;-12.99;100.00;92095.97;2131660;27;20412;-76
2022/12/12 00:45:36;;;;;;;13.33;7.00;;;;;;;-12.90;100.00;92097.81;2131085;27;20934;-75
2022/12/12 00:46:37;;;;;;;11.70;5.70;;;;;;;-12.87;100.00;92097.22;2131645;27;20026;-75
2022/12/12 00:47:38;;;;;;;12.83;6.23;;;;;;;-12.89;100.00;92097.53;2131586;27;21198;-75
2022/12/12 00:48:39;;;;;;;10.70;6.53;;;;;;;-12.91;100.00;92099.63;2121474;27;20432;-75
2022/12/12 00:49:39;;;;;;;9.67;5.93;;;;;;;-12.93;100.00;92098.41;2122125;27;20027;-75
2022/12/12 00:50:41;;;;;;;13.83;6.23;;;;;;;-12.96;100.00;92100.50;2121722;27;20011;-74
2022/12/12 00:51:42;;;;;;;11.33;6.27;;;;;;;-12.88;100.00;92106.00;2121671;27;20473;-74
2022/12/12 00:52:43;;;;;;;11.77;5.90;;;;;;;-12.87;100.00;92105.69;2122301;27;20425;-75
2022/12/12 00:53:45;;;;;;;12.80;7.37;;;;;;;-12.88;100.00;92100.84;2121948;27;20479;-74
2022/12/12 00:54:45;;;;;;;10.57;6.37;;;;;;;-12.85;100.00;92097.69;2131177;27;20126;-75
2022/12/12 00:55:57;;;;;;;9.27;5.83;;;;;;;-12.93;100.00;92101.75;2130666;27;20774;-75
2022/12/12 00:56:58;;;;;;;9.97;5.80;;;;;;;-12.84;100.00;92101.78;2130512;27;20357;-75
2022/12/12 00:57:59;;;;;;;11.23;6.33;;;;;;;-12.84;100.00;92102.53;2131197;27;20428;-74
2022/12/12 00:59:02;;;;;;;10.40;6.07;;;;;;;-12.88;100.00;92104.19;2131090;27;20075;-73
2022/12/12 01:00:06;;;;;;;12.23;6.70;;;;;;;-12.84;100.00;92105.09;2131586;27;20455;-75
2022/12/12 01:01:09;;;;;;;9.63;6.53;;;;;;;-12.91;100.00;92102.19;2130418;27;20473;-75
2022/12/12 01:02:11;;;;;;;10.53;6.03;;;;;;;-12.84;100.00;92110.25;2131162;27;20419;-74
2022/12/12 01:03:12;;;;;;;11.63;6.10;;;;;;;-12.87;100.00;92104.94;2131636;27;20419;-75
2022/12/12 01:04:13;;;;;;;11.70;6.40;;;;;;;-12.93;100.00;92100.97;2130981;27;20823;-75
2022/12/12 01:05:15;;;;;;;10.40;6.27;;;;;;;-12.96;100.00;92108.22;2131494;27;20421;-74
2022/12/12 01:06:18;;;;;;;11.13;6.03;;;;;;;-12.91;100.00;92107.34;2121142;27;20432;-75
2022/12/12 01:07:20;;;;;;;11.57;6.17;;;;;;;-12.97;100.00;92106.72;2114743;27;20417;-74
2022/12/12 01:08:21;;;;;;;14.17;6.90;;;;;;;-12.90;100.00;92113.22;2122806;27;20917;-74
2022/12/12 01:09:22;;;;;;;9.90;6.00;;;;;;;-12.91;100.00;92107.34;2113388;28;20792;-74
2022/12/12 01:10:23;;;;;;;10.37;5.50;;;;;;;-13.03;100.00;92100.19;2113773;28;20429;-75
2022/12/12 01:11:25;;;;;;;8.87;5.77;;;;;;;-12.99;100.00;92108.06;2130611;27;20105;-75
2022/12/12 01:12:26;;;;;;;11.10;5.47;;;;;;;-12.99;100.00;92101.13;2130903;27;20424;-74
2022/12/12 01:13:27;;;;;;;11.70;6.43;;;;;;;-12.94;100.00;92105.38;2130597;27;20428;-74
2022/12/12 01:14:28;;;;;;;9.83;6.07;;;;;;;-13.09;100.00;92105.72;2121892;27;20891;-75
2022/12/12 01:15:29;;;;;;;10.63;5.90;;;;;;;-13.06;100.00;92108.47;2113770;28;20418;-75
2022/12/12 01:16:37;;;;;;;10.30;5.53;;;;;;;-13.04;100.00;92106.34;2122460;27;20376;-74
2022/12/12 01:17:38;;;;;;;9.73;5.23;;;;;;;-12.97;100.00;92108.53;2130865;27;20415;-74
2022/12/12 01:18:40;;;;;;;8.37;5.40;;;;;;;-12.97;100.00;92105.94;2130874;27;20035;-75
2022/12/12 01:19:41;;;;;;;11.47;6.23;;;;;;;-13.05;100.00;92107.41;2131335;27;20462;-75
2022/12/12 01:20:43;;;;;;;8.20;5.67;;;;;;;-13.08;100.00;92107.25;2131238;27;20420;-74
2022/12/12 01:21:44;;;;;;;12.60;6.53;;;;;;;-13.02;100.00;92111.97;2130432;27;20476;-74
2022/12/12 01:22:46;;;;;;;13.00;6.10;;;;;;;-13.01;100.00;92105.78;2131241;27;20030;-74
2022/12/12 01:23:47;;;;;;;10.77;5.90;;;;;;;-13.05;100.00;92111.81;2113178;28;20798;-74
2022/12/12 01:24:48;;;;;;;8.97;5.53;;;;;;;-13.17;100.00;92107.19;2113215;27;20457;-75
2022/12/12 01:25:49;;;;;;;13.57;6.33;;;;;;;-13.23;100.00;92110.97;2131012;27;20415;-74
2022/12/12 01:26:50;;;;;;;14.17;5.83;;;;;;;-13.15;100.00;92106.91;2130659;27;20054;-75
2022/12/12 01:27:51;;;;;;;9.67;5.67;;;;;;;-13.12;100.00;92108.88;2121881;27;20437;-75
2022/12/12 01:28:52;;;;;;;11.30;5.93;;;;;;;-13.08;100.00;92112.38;2121561;27;20346;-75
2022/12/12 01:29:55;;;;;;;9.57;5.67;;;;;;;-13.14;100.00;92105.84;2131373;27;20042;-74
2022/12/12 01:30:56;;;;;;;9.53;5.50;;;;;;;-13.17;100.00;92109.75;2131284;27;20455;-75
2022/12/12 01:31:57;;;;;;;9.93;5.90;;;;;;;-13.20;100.00;92118.09;2129974;27;20428;-76
2022/12/12 01:32:58;;;;;;;10.47;5.53;;;;;;;-13.27;100.00;92118.50;2130926;27;20433;-75
2022/12/12 01:33:59;;;;;;;9.63;5.53;;;;;;;-13.32;100.00;92116.06;2130604;27;20497;-76
2022/12/12 01:35:00;;;;;;;10.30;5.77;;;;;;;-13.28;100.00;92111.88;2131312;27;20457;-74
2022/12/12 01:36:01;;;;;;;8.87;5.40;;;;;;;-13.31;100.00;92112.44;2130722;27;20117;-75
2022/12/12 01:37:02;;;;;;;10.90;5.40;;;;;;;-13.27;100.00;92107.47;2124412;27;20031;-74
2022/12/12 01:38:03;;;;;;;9.17;5.10;;;;;;;-13.28;100.00;92118.81;2112785;28;20680;-74
2022/12/12 01:39:04;;;;;;;11.73;5.63;;;;;;;-13.24;100.00;92117.19;2121649;27;20023;-73
2022/12/12 01:40:11;;;;;;;9.13;5.93;;;;;;;-13.28;100.00;92122.16;2131186;27;20106;-75
2022/12/12 01:41:14;;;;;;;9.03;5.33;;;;;;;-13.32;100.00;92113.50;2121914;27;20437;-74
2022/12/12 01:42:17;;;;;;;9.50;5.30;;;;;;;-13.24;100.00;92123.06;2121490;27;20416;-75
2022/12/12 01:43:20;;;;;;;8.63;5.90;;;;;;;-13.27;100.00;92115.94;2130953;27;20430;-74
2022/12/12 01:44:45;;;;;;;10.40;6.00;;;;;;;-13.18;100.00;92125.50;2115781;27;20460;-74
2022/12/12 01:46:01;;;;;;;10.27;5.30;;;;;;;-13.18;100.00;92117.78;2116941;27;20425;-75
2022/12/12 01:47:02;;;;;;;7.43;4.57;;;;;;;-13.31;100.00;92119.41;2113425;28;20532;-74
2022/12/12 01:48:04;;;;;;;8.13;5.37;;;;;;;-13.30;100.00;92126.03;2118763;27;20428;-75
2022/12/12 01:49:23;;;;;;;9.57;5.00;;;;;;;-13.24;100.00;92123.06;2130351;27;20437;-75
2022/12/12 01:50:24;;;;;;;8.90;4.77;;;;;;;-13.37;100.00;92111.06;2130947;27;20411;-74
2022/12/12 01:51:28;;;;;;;10.37;5.40;;;;;;;-13.33;100.00;92124.06;2121729;27;20405;-75
2022/12/12 01:52:43;;;;;;;6.97;4.67;;;;;;;-13.28;100.00;92124.72;2113693;28;20488;-74
2022/12/12 01:53:44;;;;;;;8.57;5.23;;;;;;;-13.25;100.00;92126.72;2106934;28;20437;-74
2022/12/12 01:54:50;;;;;;;9.17;5.77;;;;;;;-13.22;100.00;92123.50;2112326;28;20510;-74
2022/12/12 01:55:52;;;;;;;8.10;5.00;;;;;;;-13.29;100.00;92125.78;2122225;27;20481;-75
2022/12/12 01:56:56;;;;;;;8.67;5.23;;;;;;;-13.36;100.00;92133.13;2121787;27;20441;-75
2022/12/12 01:57:59;;;;;;;9.10;5.20;;;;;;;-13.37;100.00;92136.00;2122012;27;20417;-74
2022/12/12 01:59:02;;;;;;;8.73;4.70;;;;;;;-13.30;100.00;92136.31;2130484;27;20419;-75
2022/12/12 02:00:06;;;;;;;10.03;5.23;;;;;;;-13.31;100.00;92129.69;2121816;27;20545;-73
2022/12/12 02:01:08;;;;;;;8.70;5.30;;;;;;;-13.30;100.00;92139.69;2121718;27;20424;-76
2022/12/12 02:02:09;;;;;;;8.77;4.93;;;;;;;-13.36;100.00;92133.13;2130527;27;20423;-75
2022/12/12 02:03:11;;;;;;;11.10;5.73;;;;;;;-13.37;100.00;92131.59;2121048;27;20428;-74
2022/12/12 02:04:14;;;;;;;8.17;4.97;;;;;;;-13.25;100.00;92138.81;2120394;27;20445;-74
2022/12/12 02:05:23;;;;;;;11.47;5.37;;;;;;;-13.27;100.00;92143.47;2130985;27;20420;-73
2022/12/12 02:06:27;;;;;;;9.80;5.30;;;;;;;-13.44;100.00;92131.25;2130512;27;20408;-75
2022/12/12 02:07:28;;;;;;;9.43;4.67;;;;;;;-13.31;100.00;92140.72;2122132;27;21164;-74
2022/12/12 02:08:29;;;;;;;9.23;5.40;;;;;;;-13.32;100.00;92148.72;2123952;27;20451;-73
2022/12/12 02:09:32;;;;;;;6.97;4.50;;;;;;;-13.30;100.00;92144.81;2130334;27;20345;-74
2022/12/12 02:10:33;;;;;;;8.43;5.07;;;;;;;-13.31;100.00;92143.28;2130834;27;20447;-75
2022/12/12 02:11:41;;;;;;;8.87;4.57;;;;;;;-13.35;100.00;92144.16;2130827;27;20424;-74
2022/12/12 02:12:42;;;;;;;7.63;4.60;;;;;;;-13.30;100.00;92144.81;2130417;27;20422;-73
2022/12/12 02:13:44;;;;;;;6.53;4.47;;;;;;;-13.29;100.00;92143.75;2130556;27;20754;-73
2022/12/12 02:14:50;;;;;;;9.43;5.00;;;;;;;-13.32;100.00;92141.75;2120554;28;20968;-73
2022/12/12 02:17:29;;;;;;;;;;;;;;;-13.35;100.00;92139.78;2147600;27;20534;-74
2022/12/12 02:18:49;;;;;;;7.33;3.80;;;;;;;-13.36;100.00;92143.41;2147216;27;19918;-74
2022/12/12 02:20:14;;;;;;;7.38;4.03;;;;;;;-13.37;100.00;92144.47;2145506;27;20454;-73
2022/12/12 02:21:22;;;;;;;7.17;4.10;;;;;;;-13.39;100.00;92141.41;2137693;27;20035;-73
2022/12/12 02:22:58;;;;;;;6.47;3.70;;;;;;;-13.39;100.00;92140.66;2139089;27;20412;-74
2022/12/12 02:24:21;;;;;;;8.60;4.33;;;;;;;-13.46;100.00;92144.41;2111437;28;20997;-74
2022/12/12 02:25:33;;;;;;;9.73;3.57;;;;;;;-13.42;100.00;92142.00;2119859;27;20768;-74
2022/12/12 02:27:00;;;;;;;7.53;4.10;;;;;;;-13.38;100.00;92140.38;2146744;27;20403;-74
2022/12/12 02:28:35;;;;;;;6.20;3.60;;;;;;;-13.43;100.00;92135.34;2147072;27;20415;-75
2022/12/12 02:29:45;;;;;;;6.67;3.53;;;;;;;-13.49;100.00;92139.06;2142473;27;20765;-75
2022/12/12 02:31:11;;;;;;;8.37;4.17;;;;;;;-13.59;100.00;92132.34;2137886;27;20483;-76
2022/12/12 02:32:30;;;;;;;7.37;3.70;;;;;;;-13.54;100.00;92137.38;2137843;27;20415;-76
2022/12/12 02:33:56;;;;;;;7.17;3.77;;;;;;;-13.55;100.00;92129.97;2138435;27;20424;-76
2022/12/12 02:35:06;;;;;;;6.83;3.80;;;;;;;-13.47;100.00;92140.31;2143460;27;20431;-74
2022/12/12 02:36:07;;;;;;;7.78;3.97;;;;;;;-13.46;100.00;92141.06;2147009;27;20427;-75
2022/12/12 02:37:26;;;;;;;7.00;3.63;;;;;;;-13.45;100.00;92137.44;2140379;27;20027;-77
2022/12/12 02:38:38;;;;;;;6.90;3.30;;;;;;;-13.44;100.00;92135.63;2137957;27;20793;-74
2022/12/12 02:40:12;;;;;;;5.03;3.40;;;;;;;-13.45;100.00;92134.88;2136775;27;20793;-76
2022/12/12 02:41:36;;;;;;;6.20;3.53;;;;;;;-13.44;100.00;92138.97;2128869;27;20989;-73
2022/12/12 02:43:24;;;;;;;8.33;3.73;;;;;;;-13.46;100.00;92143.63;2132022;27;20773;-75
2022/12/12 02:44:33;;;;;;;4.77;3.57;;;;;;;-13.48;100.00;92138.78;2130224;27;20961;-75
2022/12/12 02:45:44;;;;;;;6.27;3.50;;;;;;;-13.50;100.00;92132.44;2146173;27;20443;-74
2022/12/12 02:47:04;;;;;;;6.80;3.53;;;;;;;-13.51;100.00;92130.91;2146961;27;20430;-73
2022/12/12 02:48:18;;;;;;;7.20;3.92;;;;;;;-13.52;100.00;92145.56;2136842;27;20809;-74
2022/12/12 02:49:52;;;;;;;6.37;4.00;;;;;;;-13.44;100.00;92140.78;2138589;27;20504;-75
2022/12/12 02:50:56;;;;;;;4.30;3.00;;;;;;;-13.49;100.00;92136.50;2125507;27;20467;-74
2022/12/12 02:52:07;;;;;;;5.07;3.57;;;;;;;-13.53;100.00;92143.28;2128591;27;20444;-75
2022/12/12 02:53:08;;;;;;;6.90;3.53;;;;;;;-13.53;100.00;92133.75;2129108;27;20746;-75
2022/12/12 02:54:17;;;;;;;6.03;3.47;;;;;;;-13.54;100.00;92147.66;2128444;27;20459;-75
2022/12/12 02:55:19;;;;;;;7.15;4.00;;;;;;;-13.55;100.00;92143.56;2137675;27;20023;-75
2022/12/12 02:56:44;;;;;;;6.33;3.80;;;;;;;-13.55;100.00;92137.69;2146763;27;20568;-75
2022/12/12 02:57:47;;;;;;;6.80;3.07;;;;;;;-13.55;100.00;92135.88;2146960;27;21145;-75
2022/12/12 02:58:48;;;;;;;5.37;3.80;;;;;;;-13.55;100.00;92146.16;2146804;27;20437;-75
2022/12/12 02:59:54;;;;;;;6.67;3.80;;;;;;;-13.59;100.00;92145.22;2146299;27;20757;-73
2022/12/12 03:01:17;;;;;;;5.70;3.50;;;;;;;-13.52;100.00;92130.16;2142125;27;20072;-73
2022/12/12 03:02:33;;;;;;;5.63;3.63;;;;;;;-13.50;100.00;92143.47;2137627;27;20442;-74
2022/12/12 03:08:58;;;;;;;5.57;3.03;;;;;;;-13.64;100.00;92142.75;2141421;27;20454;-75
2022/12/12 03:10:15;;;;;;;6.70;2.90;;;;;;;-13.62;100.00;92142.44;2132991;27;20822;-75
2022/12/12 03:11:37;;;;;;;4.37;3.20;;;;;;;-13.62;100.00;92137.31;2133493;27;20475;-76
2022/12/12 03:12:44;;;;;;;8.53;3.30;;;;;;;-13.60;100.00;92143.69;2146695;27;20533;-74
2022/12/12 03:13:57;;;;;;;5.97;3.50;;;;;;;-13.66;100.00;92141.50;2146604;27;20769;-75
2022/12/12 03:15:12;;;;;;;5.10;3.43;;;;;;;-13.71;100.00;92137.25;2145979;27;20437;-74
2022/12/12 03:16:31;;;;;;;6.83;3.70;;;;;;;-13.74;100.00;92138.59;2127093;27;20528;-75
2022/12/12 03:17:41;;;;;;;4.97;3.27;;;;;;;-13.60;100.00;92141.13;2123004;27;20510;-74
2022/12/12 03:19:04;;;;;;;5.07;3.05;;;;;;;-13.62;100.00;92143.22;2129475;27;20420;-74
2022/12/12 03:20:12;;;;;;;4.27;3.20;;;;;;;-13.62;100.00;92135.50;2132235;27;20034;-74
2022/12/12 03:21:25;;;;;;;5.67;3.43;;;;;;;-13.59;100.00;92134.94;2136891;27;20468;-74
2022/12/12 03:22:53;;;;;;;6.00;3.53;;;;;;;-13.60;100.00;92142.94;2137425;27;20432;-75
2022/12/12 03:24:01;;;;;;;3.60;2.60;;;;;;;-13.61;100.00;92138.81;2127068;27;20456;-74
2022/12/12 03:25:12;;;;;;;6.97;3.47;;;;;;;-13.62;100.00;92138.06;2133267;27;20456;-75
2022/12/12 03:26:18;;;;;;;5.63;3.23;;;;;;;-13.59;100.00;92132.34;2128846;27;20432;-74
2022/12/12 03:27:26;;;;;;;7.47;3.57;;;;;;;-13.61;100.00;92136.25;2135676;27;20440;-74
2022/12/12 03:28:33;;;;;;;4.73;2.67;;;;;;;-13.59;100.00;92134.94;2133034;27;20416;-75
2022/12/12 03:29:40;;;;;;;5.10;3.30;;;;;;;-13.58;100.00;92133.13;2132065;27;20428;-74
2022/12/12 03:30:45;;;;;;;4.83;3.10;;;;;;;-13.75;100.00;92136.31;2123507;27;21000;-74
2022/12/12 03:31:53;;;;;;;6.47;3.40;;;;;;;-13.63;100.00;92128.09;2122615;27;20775;-74
2022/12/12 03:32:59;;;;;;;6.30;3.23;;;;;;;-13.58;100.00;92133.13;2123184;27;20429;-75
2022/12/12 03:34:35;;;;;;;4.80;3.30;;;;;;;-13.63;100.00;92141.69;2123446;27;20448;-75
2022/12/12 03:35:42;;;;;;;4.63;3.20;;;;;;;-13.58;100.00;92145.97;2104917;28;20453;-77
2022/12/12 03:36:51;;;;;;;5.90;2.80;;;;;;;-13.61;100.00;92139.59;2106889;27;20454;-76
2022/12/12 03:38:05;;;;;;;5.07;3.43;;;;;;;-13.74;100.00;92138.59;2131766;27;20440;-76
2022/12/12 03:39:17;;;;;;;5.07;3.00;;;;;;;-13.69;100.00;92139.50;2132013;27;20456;-76
2022/12/12 03:40:28;;;;;;;6.53;3.27;;;;;;;-13.67;100.00;92138.19;2127725;27;20432;-76
2022/12/12 03:41:35;;;;;;;11.33;3.53;;;;;;;-13.66;100.00;92141.50;2122694;27;20532;-76
2022/12/12 03:42:43;;;;;;;5.90;3.30;;;;;;;-13.75;100.00;92146.56;2122186;27;20449;-75
2022/12/12 03:43:54;;;;;;;5.67;3.20;;;;;;;-13.74;100.00;92138.59;2123066;27;20472;-76
2022/12/12 03:45:46;;;;;;;5.20;2.90;;;;;;;-13.62;100.00;92140.63;2123416;27;20943;-76
2022/12/12 03:46:58;;;;;;;4.33;2.27;;;;;;;-13.65;100.00;92145.59;2129681;27;20456;-75
2022/12/12 03:48:07;;;;;;;3.87;2.33;;;;;;;-13.71;100.00;92147.53;2123610;27;20444;-75
2022/12/12 03:49:11;;;;;;;6.97;3.70;;;;;;;-13.73;100.00;92144.50;2122876;27;20444;-76
2022/12/12 03:50:20;;;;;;;7.03;3.17;;;;;;;-13.75;100.00;92138.88;2122873;27;20416;-75
2022/12/12 03:51:27;;;;;;;4.53;2.60;;;;;;;-13.80;100.00;92142.31;2123086;27;20865;-75
2022/12/12 03:52:42;;;;;;;5.53;3.00;;;;;;;-13.75;100.00;92144.75;2124601;27;20432;-75
2022/12/12 03:53:50;;;;;;;4.13;2.47;;;;;;;-13.75;100.00;92144.75;2131507;27;20492;-75
2022/12/12 03:54:59;;;;;;;5.30;3.07;;;;;;;-13.79;100.00;92143.81;2131688;27;20423;-75
2022/12/12 03:56:26;;;;;;;4.93;2.93;;;;;;;-13.68;100.00;92146.19;2122635;27;20497;-74
2022/12/12 03:57:36;;;;;;;5.63;2.57;;;;;;;-13.83;100.00;92145.44;2122759;27;20432;-74
2022/12/12 03:59:04;;;;;;;5.60;2.80;;;;;;;-13.77;100.00;92144.31;2123305;27;20425;-74
2022/12/12 04:00:13;;;;;;;4.97;2.83;;;;;;;-13.79;100.00;92145.63;2122186;27;20445;-74
2022/12/12 04:01:18;;;;;;;5.30;2.40;;;;;;;-13.85;100.00;92142.41;2115014;27;20442;-74
2022/12/12 04:02:31;;;;;;;6.67;3.07;;;;;;;-13.83;100.00;92147.25;2114482;27;20036;-74
2022/12/12 04:03:52;;;;;;;5.23;3.00;;;;;;;-13.74;100.00;92145.53;2122388;27;20476;-75
2022/12/12 04:05:20;;;;;;;5.03;2.67;;;;;;;-13.72;100.00;92146.75;2122539;27;21060;-74
2022/12/12 04:06:40;;;;;;;4.53;2.30;;;;;;;-13.74;100.00;92141.16;2127033;27;20433;-74
2022/12/12 04:07:48;;;;;;;3.95;2.45;;;;;;;-13.75;100.00;92141.44;2122919;27;20424;-75
2022/12/12 04:13:31;;;;;;;5.50;2.97;;;;;;;-13.86;100.00;92140.91;2121955;27;20447;-74
2022/12/12 04:14:50;;;;;;;3.37;2.03;;;;;;;-13.87;100.00;92144.53;2126983;27;21062;-74
2022/12/12 04:16:10;;;;;;;6.50;2.90;;;;;;;-13.86;100.00;92140.91;2128406;27;20971;-74
2022/12/12 04:17:16;;;;;;;4.93;2.80;;;;;;;-13.81;100.00;92147.75;2139371;27;20459;-74
2022/12/12 04:18:52;;;;;;;5.80;3.20;;;;;;;-13.78;100.00;92147.16;2130382;27;20023;-74
2022/12/12 04:23:17;;;;;;;5.70;2.50;;;;;;;-13.78;100.00;92152.28;2131641;27;20909;-74
2022/12/12 04:24:23;;;;;;;7.83;3.13;;;;;;;-13.80;100.00;92142.31;2138227;27;20446;-74
2022/12/12 04:27:47;;;;;;;3.37;2.27;;;;;;;-13.81;100.00;92145.94;2129526;27;20476;-75
2022/12/12 04:29:03;;;;;;;4.07;2.47;;;;;;;-13.85;100.00;92152.69;2128168;27;20435;-74
2022/12/12 04:30:10;;;;;;;3.43;2.33;;;;;;;-13.90;100.00;92152.81;2140173;27;20431;-74
2022/12/12 04:31:12;;;;;;;4.93;2.67;;;;;;;-13.91;100.00;92153.84;2138626;27;20428;-74
2022/12/12 04:32:48;;;;;;;3.70;2.87;;;;;;;-13.88;100.00;92158.41;2139961;27;20434;-74
2022/12/12 04:33:53;;;;;;;5.93;2.63;;;;;;;-13.86;100.00;92156.31;2130893;27;20420;-75
2022/12/12 04:35:01;;;;;;;5.17;2.97;;;;;;;-13.93;100.00;92158.50;2133876;27;20427;-75
2022/12/12 04:36:07;;;;;;;4.57;2.57;;;;;;;-13.90;100.00;92155.38;2134146;27;20510;-73
2022/12/12 04:37:12;;;;;;;4.60;2.90;;;;;;;-13.91;100.00;92153.84;2124829;27;20456;-74
2022/12/12 04:38:20;;;;;;;6.67;2.57;;;;;;;-13.88;100.00;92162.78;2122427;27;20495;-73
2022/12/12 04:39:22;;;;;;;5.30;2.93;;;;;;;-13.85;100.00;92162.22;2121780;27;20535;-73
2022/12/12 04:40:26;;;;;;;4.10;3.10;;;;;;;-13.88;100.00;92163.53;2121326;27;20428;-73
2022/12/12 04:41:30;;;;;;;3.77;2.80;;;;;;;-13.90;100.00;92163.06;2139674;27;20451;-73
2022/12/12 04:42:37;;;;;;;6.73;2.80;;;;;;;-14.07;100.00;92162.91;2130407;27;20497;-73
2022/12/12 04:43:42;;;;;;;7.03;3.07;;;;;;;-14.08;100.00;92158.81;2131536;27;21001;-73
2022/12/12 04:44:44;;;;;;;7.60;3.07;;;;;;;-14.07;100.00;92162.91;2140034;27;20431;-73
2022/12/12 04:45:52;;;;;;;9.90;4.63;;;;;;;-14.10;100.00;92160.91;2136586;27;20515;-72
2022/12/12 04:46:56;;;;;;;10.27;6.00;;;;;;;-14.04;100.00;92157.97;2131356;27;20416;-73
2022/12/12 04:47:58;;;;;;;10.43;5.40;;;;;;;-14.01;100.00;92166.88;2131448;27;20866;-74
2022/12/12 04:49:05;;;;;;;9.00;5.77;;;;;;;-14.01;100.00;92166.88;2130965;27;20435;-74
2022/12/12 04:50:09;;;;;;;7.97;5.23;;;;;;;-14.01;100.00;92159.19;2122371;27;20428;-74
2022/12/12 04:51:12;;;;;;;7.33;4.57;;;;;;;-14.05;100.00;92163.38;2121604;27;20452;-74
2022/12/12 04:52:17;;;;;;;6.90;4.17;;;;;;;-14.02;100.00;92165.38;2114093;27;21161;-74
2022/12/12 04:53:26;;;;;;;5.03;3.73;;;;;;;-14.01;100.00;92154.81;2122854;27;20421;-74
2022/12/12 04:55:04;;;;;;;6.73;3.93;;;;;;;-14.09;100.00;92162.41;2122199;27;20802;-74
2022/12/12 04:56:10;;;;;;;6.97;3.63;;;;;;;-14.13;100.00;92157.13;2127869;27;20485;-75
2022/12/12 04:57:20;;;;;;;5.57;3.57;;;;;;;-14.06;100.00;92162.63;2121940;27;20768;-73
2022/12/12 04:58:21;;;;;;;7.13;3.80;;;;;;;-14.03;100.00;92167.19;2115160;27;20421;-74
2022/12/12 04:59:23;;;;;;;7.53;3.70;;;;;;;-14.19;100.00;92167.75;2123362;27;20465;-75
2022/12/12 05:00:29;;;;;;;4.60;3.63;;;;;;;-14.19;100.00;92163.38;2131366;27;20435;-73
2022/12/12 05:02:01;;;;;;;6.63;4.13;;;;;;;-14.20;100.00;92169.56;2132121;27;20552;-74
2022/12/12 05:03:18;;;;;;;8.50;3.77;;;;;;;-14.16;100.00;92167.19;2131424;27;20845;-74
2022/12/12 05:04:33;;;;;;;5.07;2.97;;;;;;;-14.05;100.00;92159.00;2131146;27;20447;-74
2022/12/12 05:05:47;;;;;;;6.13;2.87;;;;;;;-13.92;100.00;92165.16;2131241;27;20456;-74
2022/12/12 05:06:55;;;;;;;6.03;3.10;;;;;;;-13.90;100.00;92167.44;2133706;27;20435;-74
2022/12/12 05:08:06;;;;;;;4.57;2.60;;;;;;;-13.99;100.00;92167.38;2131284;27;20432;-74
2022/12/12 05:09:10;;;;;;;4.43;2.60;;;;;;;-14.00;100.00;92171.75;2131470;27;20438;-74
2022/12/12 05:10:16;;;;;;;3.70;2.77;;;;;;;-14.02;100.00;92165.38;2131372;27;20443;-74
2022/12/12 05:11:17;;;;;;;5.97;3.07;;;;;;;-14.06;100.00;92167.75;2130563;27;20555;-75
2022/12/12 05:12:19;;;;;;;3.83;2.73;;;;;;;-14.07;100.00;92171.38;2131438;27;20423;-75
2022/12/12 05:13:26;;;;;;;3.70;2.53;;;;;;;-14.05;100.00;92169.25;2131123;27;20412;-75
2022/12/12 05:14:29;;;;;;;4.07;2.57;;;;;;;-14.02;100.00;92168.69;2121762;27;20441;-74
2022/12/12 05:15:30;;;;;;;4.93;2.63;;;;;;;-14.00;100.00;92171.00;2122178;27;20456;-75
2022/12/12 05:16:55;;;;;;;4.97;2.78;;;;;;;-14.06;100.00;92167.75;2122412;27;21013;-76
2022/12/12 05:18:01;;;;;;;3.40;2.50;;;;;;;-14.08;100.00;92176.78;2130825;27;20436;-74
2022/12/12 05:19:03;;;;;;;4.00;2.30;;;;;;;-14.04;100.00;92170.81;2131321;27;21046;-75
2022/12/12 05:20:04;;;;;;;4.33;2.50;;;;;;;-14.18;100.00;92172.59;2130450;27;20463;-75
2022/12/12 05:21:06;;;;;;;4.23;2.70;;;;;;;-14.14;100.00;92180.50;2120813;27;20421;-75
2022/12/12 05:22:07;;;;;;;4.60;2.30;;;;;;;-14.12;100.00;92168.91;2121053;27;20785;-75
2022/12/12 05:23:07;;;;;;;3.13;2.50;;;;;;;-14.12;100.00;92178.41;2130641;27;20507;-74
2022/12/12 05:24:09;;;;;;;5.60;2.53;;;;;;;-14.22;100.00;92182.69;2130546;27;20058;-75
2022/12/12 05:25:11;;;;;;;4.30;2.53;;;;;;;-14.30;100.00;92174.91;2130415;27;20109;-75
2022/12/12 05:26:26;;;;;;;4.37;2.37;;;;;;;-14.35;100.00;92180.91;2126990;27;20571;-75